sensor_id;sensor_type;location;lat;lon;timestamp;pressure;altitude;pressure_sealevel;temperature;humidity
63582;BME280;49727;51.078;17.066;2023-03-25T00:13:38;99149.72;;;9.45;64.06
63582;BME280;49727;51.078;17.066;2023-03-25T00:28:39;99122.22;;;9.16;64.17
63582;BME280;49727;51.078;17.066;2023-03-25T00:43:40;99117.94;;;9.00;64.49
63582;BME280;49727;51.078;17.066;2023-03-25T00:58:40;99126.13;;;8.84;65.14
63582;BME280;49727;51.078;17.066;2023-03-25T01:13:40;99120.00;;;8.68;65.01
63582;BME280;49727;51.078;17.066;2023-03-25T01:28:42;99118.56;;;8.51;65.10
63582;BME280;49727;51.078;17.066;2023-03-25T01:44:00;99090.41;;;8.41;65.46
63582;BME280;49727;51.078;17.066;2023-03-25T01:59:02;99080.53;;;8.35;66.11
63582;BME280;49727;51.078;17.066;2023-03-25T02:14:09;99066.25;;;8.21;66.25
63582;BME280;49727;51.078;17.066;2023-03-25T02:44:31;99071.34;;;7.78;66.96
63582;BME280;49727;51.078;17.066;2023-03-25T02:59:35;99073.31;;;7.76;67.52
63582;BME280;49727;51.078;17.066;2023-03-25T03:29:49;99074.50;;;7.73;68.01
63582;BME280;49727;51.078;17.066;2023-03-25T03:44:55;99080.94;;;7.56;68.03
63582;BME280;49727;51.078;17.066;2023-03-25T04:00:21;99091.03;;;7.37;68.45
63582;BME280;49727;51.078;17.066;2023-03-25T04:15:24;99088.44;;;7.29;69.13
63582;BME280;49727;51.078;17.066;2023-03-25T04:30:27;99091.00;;;7.14;69.51
63582;BME280;49727;51.078;17.066;2023-03-25T04:45:27;99095.59;;;6.97;69.93
63582;BME280;49727;51.078;17.066;2023-03-25T05:00:29;99113.16;;;6.90;70.50
63582;BME280;49727;51.078;17.066;2023-03-25T05:15:31;99109.47;;;6.99;69.46
63582;BME280;49727;51.078;17.066;2023-03-25T05:30:37;99090.19;;;7.14;70.00
63582;BME280;49727;51.078;17.066;2023-03-25T05:45:41;99100.97;;;7.35;70.72
63582;BME280;49727;51.078;17.066;2023-03-25T06:00:41;99119.13;;;8.23;69.82
63582;BME280;49727;51.078;17.066;2023-03-25T06:15:42;99124.47;;;9.34;69.33
63582;BME280;49727;51.078;17.066;2023-03-25T06:30:44;99113.97;;;10.96;67.14
63582;BME280;49727;51.078;17.066;2023-03-25T06:45:49;99106.16;;;11.90;63.39
63582;BME280;49727;51.078;17.066;2023-03-25T07:00:53;99114.75;;;11.51;62.61
63582;BME280;49727;51.078;17.066;2023-03-25T07:15:54;99103.97;;;11.05;63.55
63582;BME280;49727;51.078;17.066;2023-03-25T07:30:55;99106.44;;;11.06;63.85
63582;BME280;49727;51.078;17.066;2023-03-25T07:45:55;99119.47;;;10.88;64.17
63582;BME280;49727;51.078;17.066;2023-03-25T08:00:56;99105.25;;;11.15;64.06
63582;BME280;49727;51.078;17.066;2023-03-25T08:15:57;99114.38;;;11.88;62.06
63582;BME280;49727;51.078;17.066;2023-03-25T08:30:57;99106.38;;;13.39;59.30
63582;BME280;49727;51.078;17.066;2023-03-25T08:45:58;99121.88;;;13.24;56.47
63582;BME280;49727;51.078;17.066;2023-03-25T09:00:58;99096.16;;;12.77;55.97
63582;BME280;49727;51.078;17.066;2023-03-25T09:15:58;99091.94;;;13.08;55.74
63582;BME280;49727;51.078;17.066;2023-03-25T09:30:58;99090.16;;;14.35;53.46
63582;BME280;49727;51.078;17.066;2023-03-25T09:45:59;99087.03;;;14.56;49.67
63582;BME280;49727;51.078;17.066;2023-03-25T10:31:50;99063.69;;;14.64;46.70
63582;BME280;49727;51.078;17.066;2023-03-25T11:01:56;99053.06;;;22.92;30.24
63582;BME280;49727;51.078;17.066;2023-03-25T11:17:02;99032.28;;;24.64;30.69
63582;BME280;49727;51.078;17.066;2023-03-25T11:32:13;99015.03;;;25.78;23.38
63582;BME280;49727;51.078;17.066;2023-03-25T11:47:21;99019.63;;;24.49;25.48
63582;BME280;49727;51.078;17.066;2023-03-25T12:02:29;99015.16;;;20.45;28.49
63582;BME280;49727;51.078;17.066;2023-03-25T12:18:06;99028.78;;;15.43;37.29
63582;BME280;49727;51.078;17.066;2023-03-25T13:19:06;99083.59;;;19.70;43.24
63582;BME280;49727;51.078;17.066;2023-03-25T13:34:19;99070.63;;;22.40;35.54
63582;BME280;49727;51.078;17.066;2023-03-25T13:49:29;99081.41;;;18.46;36.86
63582;BME280;49727;51.078;17.066;2023-03-25T14:20:11;99051.75;;;14.22;46.52
63582;BME280;49727;51.078;17.066;2023-03-25T14:50:40;99067.47;;;13.43;45.16
63582;BME280;49727;51.078;17.066;2023-03-25T15:05:41;99070.19;;;12.39;46.59
63582;BME280;49727;51.078;17.066;2023-03-25T15:20:41;99125.84;;;11.48;49.80
63582;BME280;49727;51.078;17.066;2023-03-25T16:06:52;99044.41;;;9.44;60.08
63582;BME280;49727;51.078;17.066;2023-03-25T16:21:55;99044.38;;;9.01;61.24
63582;BME280;49727;51.078;17.066;2023-03-25T16:37:00;99047.75;;;8.43;63.35
63582;BME280;49727;51.078;17.066;2023-03-25T16:52:06;99055.56;;;8.00;64.07
63582;BME280;49727;51.078;17.066;2023-03-25T17:07:14;99053.97;;;7.75;65.38
63582;BME280;49727;51.078;17.066;2023-03-25T17:22:26;99053.16;;;7.52;65.42
63582;BME280;49727;51.078;17.066;2023-03-25T17:37:28;99065.47;;;7.21;65.86
63582;BME280;49727;51.078;17.066;2023-03-25T17:52:29;99062.63;;;7.00;66.73
63582;BME280;49727;51.078;17.066;2023-03-25T18:07:30;99060.28;;;6.73;66.57
63582;BME280;49727;51.078;17.066;2023-03-25T18:22:31;99057.13;;;6.47;67.77
63582;BME280;49727;51.078;17.066;2023-03-25T18:37:31;99080.13;;;6.30;68.77
63582;BME280;49727;51.078;17.066;2023-03-25T18:52:32;99105.13;;;7.06;70.20
63582;BME280;49727;51.078;17.066;2023-03-25T19:07:32;99111.97;;;7.70;67.89
63582;BME280;49727;51.078;17.066;2023-03-25T19:22:32;99116.59;;;7.76;67.54
63582;BME280;49727;51.078;17.066;2023-03-25T19:37:33;99128.00;;;7.77;66.92
63582;BME280;49727;51.078;17.066;2023-03-25T19:52:34;99124.13;;;7.65;66.79
63582;BME280;49727;51.078;17.066;2023-03-25T20:07:36;99115.22;;;7.34;66.52
63582;BME280;49727;51.078;17.066;2023-03-25T20:22:37;99117.50;;;7.14;67.15
63582;BME280;49727;51.078;17.066;2023-03-25T20:37:39;99125.81;;;7.11;66.42
63582;BME280;49727;51.078;17.066;2023-03-25T20:52:40;99103.25;;;7.15;66.43
63582;BME280;49727;51.078;17.066;2023-03-25T21:07:40;99108.56;;;7.15;66.63
63582;BME280;49727;51.078;17.066;2023-03-25T21:22:42;99115.41;;;7.33;65.67
63582;BME280;49727;51.078;17.066;2023-03-25T21:37:43;99114.88;;;7.37;65.48
63582;BME280;49727;51.078;17.066;2023-03-25T21:52:43;99115.50;;;7.39;65.82
63582;BME280;49727;51.078;17.066;2023-03-25T22:07:45;99106.50;;;7.49;65.08
63582;BME280;49727;51.078;17.066;2023-03-25T22:22:46;99100.81;;;7.60;64.73
63582;BME280;49727;51.078;17.066;2023-03-25T22:37:46;99088.56;;;7.59;64.58
63582;BME280;49727;51.078;17.066;2023-03-25T22:52:51;99085.25;;;7.57;64.08
63582;BME280;49727;51.078;17.066;2023-03-25T23:07:52;99076.91;;;7.22;63.77
63582;BME280;49727;51.078;17.066;2023-03-25T23:22:52;99076.03;;;6.98;64.95
63582;BME280;49727;51.078;17.066;2023-03-25T23:37:52;99066.38;;;6.82;65.01
63582;BME280;49727;51.078;17.066;2023-03-25T23:52:53;99048.38;;;7.01;65.54
